Time;durP1;ratioP1;P1;durP2;ratioP2;P2;SDS_P1;SDS_P2;PMS_P1;PMS_P2;Temp;Humidity;BMP_temperature;BMP_pressure;BME280_temperature;BME280_humidity;BME280_pressure;Samples;Min_cycle;Max_cycle;Signal;HPM_P1;HPM_P2
2023/03/28 00:01:34;;;;;;;10.90;4.27;;;;;0.30;102160.00;;;;10520910;27;20196;-79
2023/03/28 00:06:38;;;;;;;11.90;4.60;;;;;0.30;102168.00;;;;10503660;27;20287;-79
2023/03/28 00:11:40;;;;;;;9.57;4.13;;;;;0.20;102172.00;;;;10519900;28;20213;-79
2023/03/28 00:16:46;;;;;;;10.27;5.13;;;;;0.20;102172.00;;;;10509809;28;20663;-79
2023/03/28 00:21:49;;;;;;;10.80;4.30;;;;;0.20;102165.00;;;;10460046;28;20596;-79
2023/03/28 00:26:59;;;;;;;14.10;4.40;;;;;0.10;102163.00;;;;10517063;28;20650;-79
2023/03/28 00:32:02;;;;;;;9.60;4.03;;;;;0.20;102155.00;;;;10513079;27;20299;-78
2023/03/28 00:37:04;;;;;;;14.80;3.97;;;;;0.20;102161.00;;;;10481102;28;20222;-79
2023/03/28 00:42:12;;;;;;;13.87;4.43;;;;;0.20;102153.00;;;;10535773;27;20747;-79
2023/03/28 00:47:19;;;;;;;9.33;4.60;;;;;0.20;102146.00;;;;10514935;28;20197;-79
2023/03/28 00:52:23;;;;;;;10.47;3.90;;;;;0.20;102134.00;;;;10532532;28;20589;-79
2023/03/28 00:57:26;;;;;;;12.20;4.83;;;;;0.10;102133.00;;;;10533574;28;20220;-78
2023/03/28 01:02:29;;;;;;;9.63;3.93;;;;;0.10;102133.00;;;;10526992;28;20209;-79
2023/03/28 01:07:39;;;;;;;8.40;4.43;;;;;0.10;102121.00;;;;10480045;28;20321;-78
2023/03/28 01:12:42;;;;;;;11.53;4.60;;;;;0.10;102119.00;;;;10488500;27;20226;-79
2023/03/28 01:17:45;;;;;;;8.47;4.43;;;;;0.10;102129.00;;;;10557895;27;20204;-78
2023/03/28 01:23:25;;;;;;;7.83;3.90;;;;;0.10;102122.00;;;;10549803;28;20196;-79
2023/03/28 01:28:55;;;;;;;10.77;4.87;;;;;0.20;102122.00;;;;10550498;28;20211;-79
2023/03/28 01:34:20;;;;;;;12.33;3.90;;;;;0.20;102118.00;;;;10503806;28;20234;-79
2023/03/28 01:39:40;;;;;;;9.60;4.53;;;;;0.10;102136.00;;;;10543812;27;20187;-78
2023/03/28 01:44:46;;;;;;;7.70;3.90;;;;;0.00;102141.00;;;;10535016;27;20312;-79
2023/03/28 01:49:54;;;;;;;6.80;4.07;;;;;-0.10;102130.00;;;;10500954;28;20231;-78
2023/03/28 01:55:07;;;;;;;13.50;5.03;;;;;-0.30;102139.00;;;;10498792;28;20231;-79
2023/03/28 02:00:14;;;;;;;10.37;4.27;;;;;-0.40;102133.00;;;;10547245;28;20200;-79
2023/03/28 02:05:35;;;;;;;12.73;4.10;;;;;-0.40;102131.00;;;;10517289;28;20317;-78
2023/03/28 02:10:41;;;;;;;11.07;4.47;;;;;-0.40;102134.00;;;;10523364;28;20667;-78
2023/03/28 02:16:21;;;;;;;8.70;3.73;;;;;-0.40;102132.00;;;;10543763;28;20207;-78
2023/03/28 02:22:02;;;;;;;14.47;4.80;;;;;-0.30;102128.00;;;;10539032;28;20198;-79
2023/03/28 02:27:19;;;;;;;10.73;4.33;;;;;-0.20;102116.00;;;;10527160;28;20205;-79
2023/03/28 02:32:36;;;;;;;8.27;3.77;;;;;-0.20;102108.00;;;;10515852;28;20565;-78
2023/03/28 02:38:03;;;;;;;8.83;3.93;;;;;-0.10;102118.00;;;;10540639;27;20185;-79
2023/03/28 02:43:26;;;;;;;7.93;3.80;;;;;-0.20;102116.00;;;;10539624;27;20224;-78
2023/03/28 02:48:40;;;;;;;6.73;3.17;;;;;-0.20;102117.00;;;;10504891;28;20196;-79
2023/03/28 02:54:08;;;;;;;9.17;3.30;;;;;-0.10;102118.00;;;;10537145;28;20216;-78
2023/03/28 02:59:17;;;;;;;14.13;5.63;;;;;-0.10;102106.00;;;;10517618;28;20200;-78
2023/03/28 03:04:19;;;;;;;7.30;3.43;;;;;-0.20;102111.00;;;;10482120;28;20196;-79
2023/03/28 03:09:21;;;;;;;9.77;3.67;;;;;-0.20;102108.00;;;;10495428;28;20337;-78
2023/03/28 03:14:24;;;;;;;4.47;2.80;;;;;-0.30;102101.00;;;;10504035;28;21031;-79
2023/03/28 03:19:29;;;;;;;8.67;3.03;;;;;-0.30;102109.00;;;;10494038;28;20196;-79
2023/03/28 03:24:33;;;;;;;8.93;2.93;;;;;-0.30;102105.00;;;;10494305;28;20235;-79
2023/03/28 03:29:35;;;;;;;6.43;2.87;;;;;-0.30;102112.00;;;;10493807;28;20548;-78
2023/03/28 03:34:41;;;;;;;9.80;2.60;;;;;-0.30;102102.00;;;;10497223;27;20215;-79
2023/03/28 03:39:44;;;;;;;4.67;2.10;;;;;-0.40;102093.00;;;;10533247;28;20198;-78
2023/03/28 03:44:47;;;;;;;8.50;2.60;;;;;-0.40;102085.00;;;;10536463;28;20558;-78
2023/03/28 03:49:50;;;;;;;8.90;2.83;;;;;-0.40;102098.00;;;;10469897;28;20216;-79
2023/03/28 03:54:52;;;;;;;9.17;2.60;;;;;-0.40;102087.00;;;;10514337;28;20292;-79
2023/03/28 03:59:56;;;;;;;4.67;2.30;;;;;-0.30;102085.00;;;;10492336;28;20514;-79
2023/03/28 04:04:59;;;;;;;4.83;2.23;;;;;-0.30;102076.00;;;;10494419;28;20205;-78
2023/03/28 04:10:15;;;;;;;5.33;2.17;;;;;-0.30;102085.00;;;;10523270;28;20213;-78
2023/03/28 04:15:18;;;;;;;5.30;2.40;;;;;-0.30;102074.00;;;;10510218;28;20251;-79
2023/03/28 04:20:32;;;;;;;2.93;1.97;;;;;-0.40;102076.00;;;;10515992;28;20200;-79
2023/03/28 04:25:40;;;;;;;4.40;2.07;;;;;-0.40;102083.00;;;;10455521;28;20211;-79
2023/03/28 04:30:57;;;;;;;9.93;2.70;;;;;-0.50;102082.00;;;;10459844;28;20204;-78
2023/03/28 04:36:11;;;;;;;13.63;2.90;;;;;-0.40;102083.00;;;;10516467;28;20227;-78
2023/03/28 04:41:15;;;;;;;14.00;3.00;;;;;-0.40;102074.00;;;;10500345;28;20215;-79
2023/03/28 04:46:32;;;;;;;9.80;2.73;;;;;-0.50;102080.00;;;;10535601;28;20199;-79
2023/03/28 04:51:42;;;;;;;12.00;2.37;;;;;-0.70;102075.00;;;;10482573;28;20216;-79
2023/03/28 04:56:48;;;;;;;6.20;1.90;;;;;-0.90;102076.00;;;;10516473;28;20200;-79
2023/03/28 05:01:58;;;;;;;7.00;2.17;;;;;-1.10;102067.00;;;;10525158;28;20207;-78
2023/03/28 05:07:14;;;;;;;4.33;1.70;;;;;-1.30;102079.00;;;;10488905;28;20208;-79
2023/03/28 05:12:16;;;;;;;9.03;2.63;;;;;-1.40;102076.00;;;;10512223;28;20690;-78
2023/03/28 05:17:31;;;;;;;8.37;5.50;;;;;-1.50;102080.00;;;;10537185;28;20196;-78
2023/03/28 05:22:37;;;;;;;7.13;2.67;;;;;-1.50;102087.00;;;;10474755;28;20272;-79
2023/03/28 05:27:39;;;;;;;8.60;2.90;;;;;-1.40;102099.00;;;;10483389;28;20204;-79
2023/03/28 05:32:42;;;;;;;13.60;3.50;;;;;-1.30;102088.00;;;;10504486;28;20254;-78
2023/03/28 05:37:45;;;;;;;7.47;2.83;;;;;-1.20;102088.00;;;;10509801;28;20245;-78
2023/03/28 05:42:48;;;;;;;6.20;3.30;;;;;-1.00;102080.00;;;;10526197;27;20196;-78
2023/03/28 05:47:55;;;;;;;8.27;3.73;;;;;-0.80;102081.00;;;;10517752;28;20280;-79
2023/03/28 05:52:58;;;;;;;10.80;3.40;;;;;-0.60;102093.00;;;;10480860;28;20557;-79
2023/03/28 05:58:00;;;;;;;6.93;3.93;;;;;-0.20;102100.00;;;;10492051;28;20185;-78
2023/03/28 06:03:10;;;;;;;12.27;3.77;;;;;0.50;102105.00;;;;10532207;28;20299;-78
2023/03/28 06:08:19;;;;;;;7.07;3.40;;;;;0.90;102111.00;;;;10551323;28;20196;-78
2023/03/28 06:13:22;;;;;;;7.47;3.60;;;;;1.30;102107.00;;;;10526374;28;20302;-78
2023/03/28 06:18:25;;;;;;;15.60;4.10;;;;;1.40;102102.00;;;;10475975;28;20204;-79
2023/03/28 06:23:27;;;;;;;4.40;2.90;;;;;1.50;102106.00;;;;10476736;28;20193;-78
2023/03/28 06:28:30;;;;;;;12.07;4.43;;;;;1.80;102100.00;;;;10510203;28;20188;-78
2023/03/28 06:33:59;;;;;;;11.10;4.50;;;;;1.90;102105.00;;;;10537431;27;20311;-78
2023/03/28 06:39:01;;;;;;;7.87;3.97;;;;;2.10;102108.00;;;;10539531;27;20220;-78
2023/03/28 06:44:04;;;;;;;5.83;3.70;;;;;2.50;102112.00;;;;10537059;27;20618;-78
2023/03/28 06:49:41;;;;;;;7.70;4.00;;;;;3.10;102125.00;;;;10492496;28;20212;-78
2023/03/28 06:55:04;;;;;;;8.53;3.80;;;;;3.40;102127.00;;;;10492460;28;20222;-78
2023/03/28 07:00:07;;;;;;;10.63;4.03;;;;;3.70;102113.00;;;;10519418;28;20717;-79
2023/03/28 07:05:27;;;;;;;10.47;3.53;;;;;3.90;102111.00;;;;10527931;28;20199;-78
2023/03/28 07:10:31;;;;;;;6.80;3.40;;;;;4.00;102122.00;;;;10519578;28;22319;-78
2023/03/28 07:15:34;;;;;;;10.30;3.80;;;;;4.30;102114.00;;;;10496106;28;20323;-78
2023/03/28 07:20:40;;;;;;;11.70;4.43;;;;;4.60;102107.00;;;;10479319;28;20727;-79
2023/03/28 07:25:43;;;;;;;21.27;5.77;;;;;5.00;102107.00;;;;10537479;28;20211;-79
2023/03/28 07:30:45;;;;;;;16.43;6.03;;;;;5.30;102106.00;;;;10521293;27;20265;-79
2023/03/28 07:35:47;;;;;;;18.50;5.67;;;;;5.70;102112.00;;;;10521808;27;20208;-79
2023/03/28 07:40:49;;;;;;;11.47;4.40;;;;;5.60;102107.00;;;;10490282;28;20197;-78
2023/03/28 07:45:57;;;;;;;8.70;4.20;;;;;5.50;102106.00;;;;10478084;28;20296;-78
2023/03/28 07:51:00;;;;;;;9.80;4.57;;;;;5.70;102101.00;;;;10522209;28;20196;-78
2023/03/28 07:56:04;;;;;;;18.57;4.87;;;;;6.10;102121.00;;;;10479160;27;20226;-79
2023/03/28 08:01:21;;;;;;;9.27;3.87;;;;;6.60;102112.00;;;;10537237;28;20511;-79
2023/03/28 08:06:32;;;;;;;6.53;3.60;;;;;6.90;102109.00;;;;10516416;28;20245;-79
2023/03/28 08:11:38;;;;;;;10.77;4.17;;;;;7.10;102088.00;;;;10535038;28;20540;-78
2023/03/28 08:16:40;;;;;;;13.83;4.23;;;;;7.20;102093.00;;;;10558150;27;20231;-78
2023/03/28 08:21:42;;;;;;;9.50;3.87;;;;;7.30;102075.00;;;;10542298;28;20196;-79
2023/03/28 08:26:45;;;;;;;13.07;3.83;;;;;7.30;102079.00;;;;10535682;28;20809;-79
2023/03/28 08:31:50;;;;;;;11.73;3.80;;;;;7.30;102071.00;;;;10532260;27;20291;-79
2023/03/28 08:36:52;;;;;;;9.83;3.40;;;;;7.50;102076.00;;;;10526357;28;20837;-79
2023/03/28 08:42:15;;;;;;;14.33;3.97;;;;;7.50;102064.00;;;;10518477;28;20220;-79
2023/03/28 08:47:30;;;;;;;9.53;3.50;;;;;7.70;102068.00;;;;10513827;27;20196;-80
2023/03/28 08:52:33;;;;;;;9.37;4.37;;;;;8.00;102060.00;;;;10473964;28;20309;-79
2023/03/28 08:57:39;;;;;;;8.13;3.43;;;;;8.00;102072.00;;;;10511349;27;20189;-79
2023/03/28 09:02:42;;;;;;;12.97;3.67;;;;;7.60;102072.00;;;;10531176;28;20192;-79
2023/03/28 09:08:12;;;;;;;7.23;3.30;;;;;8.60;102058.00;;;;10461717;28;20216;-79
2023/03/28 09:13:15;;;;;;;7.37;3.07;;;;;9.80;102056.00;;;;10488456;28;20263;-79
2023/03/28 09:18:23;;;;;;;6.73;3.50;;;;;9.30;102062.00;;;;10480383;28;20350;-79
2023/03/28 09:24:03;;;;;;;9.37;3.37;;;;;10.10;102049.00;;;;10491587;28;20200;-79
2023/03/28 09:29:45;;;;;;;8.40;2.90;;;;;10.70;102039.00;;;;10506467;28;20207;-79
2023/03/28 09:34:50;;;;;;;8.47;3.23;;;;;10.70;102023.00;;;;10489350;28;20646;-79
2023/03/28 09:39:57;;;;;;;7.97;3.47;;;;;10.90;102017.00;;;;10475452;28;20211;-79
2023/03/28 09:45:34;;;;;;;8.63;3.63;;;;;11.70;102004.00;;;;10495901;28;20763;-79
2023/03/28 09:50:57;;;;;;;10.70;3.17;;;;;11.70;101998.00;;;;10528028;28;20211;-79
2023/03/28 09:56:05;;;;;;;7.73;3.17;;;;;11.60;102004.00;;;;10519589;28;20220;-80
2023/03/28 10:01:30;;;;;;;8.20;3.50;;;;;11.50;102002.00;;;;10488541;28;20252;-79
2023/03/28 10:07:07;;;;;;;6.27;3.67;;;;;12.40;101991.00;;;;10493668;28;20238;-79
2023/03/28 10:12:18;;;;;;;6.37;2.90;;;;;13.30;101977.00;;;;10487351;27;20217;-79
2023/03/28 10:17:36;;;;;;;9.20;2.93;;;;;13.20;101989.00;;;;10498506;28;20196;-79
2023/03/28 10:22:40;;;;;;;7.73;2.97;;;;;13.40;101979.00;;;;10497663;28;20200;-79
2023/03/28 10:27:46;;;;;;;7.23;3.30;;;;;13.30;101963.00;;;;10523062;28;20208;-79
2023/03/28 10:33:11;;;;;;;8.10;3.07;;;;;13.30;101965.00;;;;10490589;28;20223;-79
2023/03/28 10:38:47;;;;;;;5.50;2.63;;;;;13.40;101964.00;;;;10521603;28;20218;-80
2023/03/28 10:44:25;;;;;;;4.37;2.73;;;;;13.90;101950.00;;;;10517438;28;20279;-79
2023/03/28 10:49:43;;;;;;;6.47;2.03;;;;;14.40;101936.00;;;;10537415;28;20223;-80
2023/03/28 10:55:09;;;;;;;6.63;2.67;;;;;13.90;101929.00;;;;10536713;28;20216;-79
2023/03/28 11:00:49;;;;;;;4.63;2.30;;;;;13.90;101913.00;;;;10463407;28;20208;-79
2023/03/28 11:06:14;;;;;;;6.47;2.10;;;;;13.30;101915.00;;;;10478060;28;20243;-80
2023/03/28 11:11:35;;;;;;;8.80;2.90;;;;;13.30;101904.00;;;;10505632;28;20291;-80
2023/03/28 11:17:15;;;;;;;8.80;2.20;;;;;14.10;101880.00;;;;10542751;27;20227;-80
2023/03/28 11:22:44;;;;;;;5.97;2.20;;;;;13.80;101881.00;;;;10546615;27;20203;-80
2023/03/28 11:28:32;;;;;;;6.07;2.00;;;;;13.30;101875.00;;;;10492348;28;20211;-80
2023/03/28 11:33:56;;;;;;;5.70;2.67;;;;;13.50;101857.00;;;;10496080;28;20408;-80
2023/03/28 11:39:30;;;;;;;5.80;2.10;;;;;14.00;101845.00;;;;10502116;28;20199;-79
2023/03/28 11:44:43;;;;;;;3.77;2.10;;;;;14.40;101840.00;;;;10544465;27;20196;-79
2023/03/28 11:49:56;;;;;;;5.60;2.00;;;;;14.50;101833.00;;;;10475173;28;20197;-80
2023/03/28 11:55:22;;;;;;;5.00;2.20;;;;;15.00;101836.00;;;;10490239;28;20699;-80
2023/03/28 12:00:35;;;;;;;6.32;2.22;;;;;15.20;101823.00;;;;10502910;28;20200;-80
2023/03/28 12:05:51;;;;;;;5.10;2.17;;;;;14.80;101827.00;;;;10513592;27;20224;-80
2023/03/28 12:11:11;;;;;;;4.20;1.92;;;;;14.40;101818.00;;;;10459936;28;20205;-80
2023/03/28 12:16:38;;;;;;;6.97;2.35;;;;;14.50;101802.00;;;;10546154;28;20214;-80
2023/03/28 12:21:51;;;;;;;7.60;2.20;;;;;14.90;101782.00;;;;10531682;28;20241;-80
2023/03/28 12:27:39;;;;;;;5.75;2.78;;;;;16.20;101754.00;;;;10509280;28;20266;-80
2023/03/28 12:33:08;;;;;;;5.30;2.33;;;;;15.40;101750.00;;;;10503482;27;20227;-79
2023/03/28 12:38:20;;;;;;;3.10;2.10;;;;;15.10;101746.00;;;;10530389;27;20240;-80
2023/03/28 12:43:42;;;;;;;7.60;2.70;;;;;14.80;101751.00;;;;10523822;27;20454;-79
2023/03/28 12:48:55;;;;;;;9.48;2.53;;;;;15.00;101753.00;;;;10530650;28;20211;-79
2023/03/28 12:54:16;;;;;;;4.50;2.05;;;;;15.10;101732.00;;;;10524244;27;20276;-80
2023/03/28 12:59:35;;;;;;;6.63;2.47;;;;;15.30;101727.00;;;;10509956;28;20196;-79
2023/03/28 13:04:55;;;;;;;6.53;2.28;;;;;15.40;101724.00;;;;10493998;28;20199;-79
2023/03/28 13:10:25;;;;;;;5.95;2.60;;;;;15.40;101718.00;;;;10535256;28;20202;-79
2023/03/28 13:15:31;;;;;;;4.75;2.28;;;;;15.30;101717.00;;;;10508780;28;20302;-79
2023/03/28 13:20:44;;;;;;;6.10;2.53;;;;;15.00;101710.00;;;;10475826;28;20285;-79
2023/03/28 13:25:55;;;;;;;5.90;2.45;;;;;14.80;101704.00;;;;10493959;28;20250;-79
2023/03/28 13:31:06;;;;;;;7.43;2.37;;;;;14.70;101704.00;;;;10518706;28;20192;-80
2023/03/28 13:36:09;;;;;;;5.38;2.05;;;;;14.90;101694.00;;;;10540181;27;20229;-79
2023/03/28 13:41:34;;;;;;;5.32;2.13;;;;;15.00;101693.00;;;;10510011;28;20196;-80
2023/03/28 13:46:43;;;;;;;8.52;2.30;;;;;14.40;101696.00;;;;10525980;28;20227;-79
2023/03/28 13:52:02;;;;;;;8.55;2.72;;;;;14.00;101684.00;;;;10498334;27;20192;-79
2023/03/28 13:57:16;;;;;;;8.90;2.40;;;;;13.70;101672.00;;;;10526880;28;20218;-79
2023/03/28 14:02:28;;;;;;;8.63;2.23;;;;;13.60;101667.00;;;;10525575;28;20200;-79
2023/03/28 14:07:30;;;;;;;4.37;1.53;;;;;13.30;101662.00;;;;10535529;27;20216;-79
2023/03/28 14:12:32;;;;;;;4.00;2.37;;;;;13.30;101644.00;;;;10519709;28;20920;-79
2023/03/28 14:17:37;;;;;;;5.00;1.83;;;;;12.90;101631.00;;;;10522365;28;20698;-80
2023/03/28 14:22:40;;;;;;;4.23;1.93;;;;;12.70;101621.00;;;;10540402;28;20192;-79
2023/03/28 14:28:07;;;;;;;7.17;2.17;;;;;12.60;101609.00;;;;10497233;28;20730;-79
2023/03/28 14:33:09;;;;;;;4.87;2.00;;;;;12.60;101596.00;;;;10523638;28;20219;-80
2023/03/28 14:38:31;;;;;;;6.37;1.80;;;;;12.50;101590.00;;;;10526027;27;20297;-79
2023/03/28 14:43:34;;;;;;;6.37;1.77;;;;;12.10;101575.00;;;;10516916;27;20216;-79
2023/03/28 14:48:37;;;;;;;4.57;2.20;;;;;11.80;101565.00;;;;10520531;27;20212;-79
2023/03/28 14:53:46;;;;;;;3.47;2.00;;;;;11.50;101574.00;;;;10497829;27;20204;-79
2023/03/28 14:58:50;;;;;;;4.93;1.63;;;;;11.30;101552.00;;;;10470314;28;20211;-79
2023/03/28 15:03:57;;;;;;;2.47;1.50;;;;;11.10;101551.00;;;;10501864;28;20235;-80
2023/03/28 15:09:08;;;;;;;6.23;1.40;;;;;10.90;101539.00;;;;10528576;27;20197;-79
2023/03/28 15:14:21;;;;;;;5.20;1.70;;;;;10.70;101520.00;;;;10538669;27;20211;-79
2023/03/28 15:19:34;;;;;;;4.97;1.50;;;;;10.60;101512.00;;;;10534116;27;20224;-80
2023/03/28 15:24:37;;;;;;;6.33;1.70;;;;;10.50;101512.00;;;;10499867;28;20212;-80
2023/03/28 15:29:40;;;;;;;2.87;1.47;;;;;10.50;101507.00;;;;10522091;28;20188;-79
2023/03/28 15:35:03;;;;;;;7.77;1.90;;;;;10.50;101499.00;;;;10470825;28;20220;-79
2023/03/28 15:40:18;;;;;;;2.77;1.40;;;;;10.50;101492.00;;;;10480280;28;20212;-79
2023/03/28 15:45:22;;;;;;;5.67;1.70;;;;;10.30;101485.00;;;;10517326;28;20193;-79
2023/03/28 15:50:27;;;;;;;5.60;1.70;;;;;10.20;101488.00;;;;10531445;28;20232;-79
2023/03/28 15:55:30;;;;;;;3.57;1.87;;;;;10.10;101468.00;;;;10492887;28;20221;-79
2023/03/28 16:00:39;;;;;;;6.07;2.00;;;;;9.90;101459.00;;;;10494855;28;20720;-79
2023/03/28 16:05:47;;;;;;;3.63;1.77;;;;;9.80;101470.00;;;;10508448;28;20277;-79
2023/03/28 16:10:49;;;;;;;3.77;1.87;;;;;9.70;101475.00;;;;10519741;28;20712;-79
2023/03/28 16:16:27;;;;;;;3.53;1.60;;;;;9.60;101469.00;;;;10522094;28;20716;-79
2023/03/28 16:21:42;;;;;;;3.80;2.00;;;;;9.50;101464.00;;;;10532732;27;20287;-81
2023/03/28 16:26:45;;;;;;;5.83;2.50;;;;;9.40;101457.00;;;;10517974;27;20208;-80
2023/03/28 16:31:48;;;;;;;4.43;2.00;;;;;9.10;101458.00;;;;10536885;27;20207;-79
2023/03/28 16:36:50;;;;;;;4.33;2.00;;;;;8.80;101464.00;;;;10526216;27;20223;-80
2023/03/28 16:41:52;;;;;;;5.30;2.00;;;;;8.50;101468.00;;;;10475123;27;20228;-81
2023/03/28 16:46:54;;;;;;;5.57;2.53;;;;;8.10;101465.00;;;;10518669;27;20203;-81
2023/03/28 16:51:56;;;;;;;4.43;2.07;;;;;7.70;101468.00;;;;10501648;27;20286;-80
2023/03/28 16:56:58;;;;;;;4.70;1.53;;;;;7.50;101468.00;;;;10552790;27;20212;-80
2023/03/28 17:02:00;;;;;;;3.00;1.70;;;;;7.20;101479.00;;;;10539776;27;20203;-80
2023/03/28 17:07:03;;;;;;;2.73;1.70;;;;;6.80;101483.00;;;;10519476;27;20203;-80
2023/03/28 17:12:06;;;;;;;6.80;2.27;;;;;6.50;101484.00;;;;10514999;28;20308;-79
2023/03/28 17:17:08;;;;;;;3.60;1.90;;;;;6.40;101478.00;;;;10516241;28;20222;-80
2023/03/28 17:22:11;;;;;;;5.83;1.77;;;;;6.30;101467.00;;;;10550687;27;20521;-79
2023/03/28 17:27:13;;;;;;;2.27;1.77;;;;;6.20;101444.00;;;;10542757;27;20231;-78
2023/03/28 17:32:16;;;;;;;3.93;1.73;;;;;6.10;101453.00;;;;10538182;28;20230;-79
2023/03/28 17:37:21;;;;;;;3.67;2.33;;;;;6.00;101443.00;;;;10525397;27;20814;-79
2023/03/28 17:42:23;;;;;;;3.30;1.77;;;;;5.80;101458.00;;;;10493044;27;20232;-79
2023/03/28 17:47:25;;;;;;;5.33;1.93;;;;;5.70;101439.00;;;;10516318;27;21158;-79
2023/03/28 17:52:30;;;;;;;2.70;1.50;;;;;5.60;101426.00;;;;10533893;27;20197;-79
2023/03/28 17:57:33;;;;;;;3.03;1.63;;;;;5.60;101436.00;;;;10522130;28;20215;-79
2023/03/28 18:02:37;;;;;;;1.63;1.37;;;;;5.60;101439.00;;;;10528833;28;20207;-79
2023/03/28 18:07:50;;;;;;;4.27;1.97;;;;;5.50;101434.00;;;;10507656;28;20201;-81
2023/03/28 18:12:54;;;;;;;5.20;1.63;;;;;5.50;101429.00;;;;10519576;28;20200;-79
2023/03/28 18:18:00;;;;;;;3.87;2.03;;;;;5.50;101417.00;;;;10529937;27;20386;-79
2023/03/28 18:23:02;;;;;;;2.83;1.77;;;;;5.50;101410.00;;;;10517936;27;20902;-79
2023/03/28 18:28:06;;;;;;;2.80;1.97;;;;;5.50;101409.00;;;;10536532;27;20203;-79
2023/03/28 18:33:10;;;;;;;2.17;1.67;;;;;5.40;101389.00;;;;10566392;27;20206;-79
2023/03/28 18:38:12;;;;;;;4.03;1.57;;;;;5.40;101398.00;;;;10489582;27;20221;-80
2023/03/28 18:43:15;;;;;;;4.03;1.83;;;;;5.40;101369.00;;;;10512784;27;20228;-79
2023/03/28 18:48:18;;;;;;;3.13;2.83;;;;;5.40;101360.00;;;;10541007;27;20215;-79
2023/03/28 18:53:21;;;;;;;5.23;1.80;;;;;5.30;101345.00;;;;10523895;27;20300;-80
2023/03/28 18:58:24;;;;;;;3.00;1.90;;;;;5.30;101321.00;;;;10564532;27;20207;-80
2023/03/28 19:03:29;;;;;;;2.97;1.97;;;;;5.30;101316.00;;;;10521167;27;20275;-80
2023/03/28 19:08:31;;;;;;;4.80;3.10;;;;;5.20;101325.00;;;;10524318;27;20196;-79
2023/03/28 19:13:33;;;;;;;5.30;2.50;;;;;5.20;101340.00;;;;10541226;27;20253;-80
2023/03/28 19:18:36;;;;;;;3.40;2.13;;;;;5.30;101342.00;;;;10558151;27;20265;-79
2023/03/28 19:23:39;;;;;;;7.00;2.80;;;;;5.30;101359.00;;;;10523438;27;20981;-80
2023/03/28 19:28:41;;;;;;;2.60;2.20;;;;;5.30;101357.00;;;;10565961;27;20330;-79
2023/03/28 19:33:43;;;;;;;6.53;2.30;;;;;5.30;101327.00;;;;10543444;27;20208;-80
2023/03/28 19:38:45;;;;;;;2.17;1.77;;;;;5.40;101314.00;;;;10557891;27;20200;-80
2023/03/28 19:43:48;;;;;;;7.83;2.30;;;;;5.40;101324.00;;;;10527984;27;20211;-80
2023/03/28 19:48:50;;;;;;;4.13;2.80;;;;;5.50;101315.00;;;;10537951;27;20318;-79
2023/03/28 19:53:54;;;;;;;8.00;3.30;;;;;5.50;101327.00;;;;10558108;27;20215;-80
2023/03/28 19:58:57;;;;;;;4.80;2.80;;;;;5.60;101321.00;;;;10494734;27;20203;-80
2023/03/28 20:03:59;;;;;;;3.73;2.40;;;;;5.60;101308.00;;;;10522779;27;20216;-80
2023/03/28 20:09:02;;;;;;;4.50;2.67;;;;;5.70;101311.00;;;;10549006;27;20208;-80
2023/03/28 20:14:04;;;;;;;4.70;2.67;;;;;5.70;101305.00;;;;10532063;27;20213;-80
2023/03/28 20:19:06;;;;;;;4.20;2.10;;;;;5.80;101300.00;;;;10515131;27;20199;-79
2023/03/28 20:24:09;;;;;;;4.70;2.10;;;;;5.80;101282.00;;;;10502676;28;20199;-80
2023/03/28 20:29:12;;;;;;;6.20;2.20;;;;;5.90;101280.00;;;;10537496;27;20192;-80
2023/03/28 20:34:14;;;;;;;3.03;1.73;;;;;5.90;101283.00;;;;10496507;28;20220;-80
2023/03/28 20:39:16;;;;;;;3.93;1.93;;;;;5.90;101284.00;;;;10531616;27;20217;-80
2023/03/28 20:44:19;;;;;;;6.77;2.07;;;;;6.00;101281.00;;;;10508858;27;20212;-80
2023/03/28 20:49:21;;;;;;;4.40;2.00;;;;;6.00;101256.00;;;;10520606;28;20220;-80
2023/03/28 20:54:26;;;;;;;3.10;1.70;;;;;6.00;101257.00;;;;10492679;28;20251;-80
2023/03/28 20:59:29;;;;;;;7.67;1.50;;;;;6.00;101252.00;;;;10529158;27;20477;-80
2023/03/28 21:04:31;;;;;;;3.33;1.67;;;;;6.10;101270.00;;;;10534586;27;20222;-79
2023/03/28 21:09:33;;;;;;;2.77;1.60;;;;;6.10;101263.00;;;;10504583;27;20365;-80
2023/03/28 21:14:35;;;;;;;2.17;1.50;;;;;6.10;101254.00;;;;10492915;27;20211;-77
2023/03/28 21:19:37;;;;;;;1.97;1.40;;;;;6.20;101247.00;;;;10524314;28;20192;-77
2023/03/28 21:24:39;;;;;;;3.00;1.43;;;;;6.20;101243.00;;;;10519495;28;20192;-77
2023/03/28 21:29:41;;;;;;;4.70;1.60;;;;;6.20;101241.00;;;;10531345;27;20330;-77
2023/03/28 21:34:43;;;;;;;6.37;1.30;;;;;6.20;101251.00;;;;10538200;27;20295;-77
2023/03/28 21:39:46;;;;;;;2.50;1.30;;;;;6.20;101251.00;;;;10518735;28;20492;-77
2023/03/28 21:44:47;;;;;;;4.87;1.70;;;;;6.20;101244.00;;;;10523581;28;20196;-77
2023/03/28 21:49:49;;;;;;;2.97;1.70;;;;;6.20;101243.00;;;;10532202;27;20200;-77
2023/03/28 21:54:52;;;;;;;2.27;1.40;;;;;6.30;101234.00;;;;10562956;27;20789;-77
2023/03/28 21:59:53;;;;;;;3.67;1.70;;;;;6.20;101221.00;;;;10535086;27;20281;-77
2023/03/28 22:05:05;;;;;;;5.63;1.87;;;;;6.30;101227.00;;;;10556544;27;20211;-77
2023/03/28 22:10:28;;;;;;;5.60;1.70;;;;;6.30;101208.00;;;;10539990;27;20596;-77
2023/03/28 22:15:30;;;;;;;7.40;1.83;;;;;6.30;101198.00;;;;10531907;27;20299;-77
2023/03/28 22:20:35;;;;;;;4.33;2.00;;;;;6.30;101214.00;;;;10539362;27;20291;-77
2023/03/28 22:25:38;;;;;;;4.07;1.80;;;;;6.40;101215.00;;;;10509400;27;20928;-77
2023/03/28 22:30:40;;;;;;;5.87;1.87;;;;;6.40;101201.00;;;;10534135;27;20193;-77
2023/03/28 22:35:42;;;;;;;2.80;1.63;;;;;6.50;101198.00;;;;10508307;27;20292;-77
2023/03/28 22:40:45;;;;;;;6.10;1.70;;;;;6.50;101193.00;;;;10510355;27;20305;-77
2023/03/28 22:45:47;;;;;;;5.20;1.57;;;;;6.50;101192.00;;;;10522668;27;20200;-77
2023/03/28 22:50:49;;;;;;;3.20;1.80;;;;;6.60;101186.00;;;;10528438;27;20239;-77
2023/03/28 22:55:51;;;;;;;4.07;1.70;;;;;6.60;101186.00;;;;10553114;27;20219;-77
2023/03/28 23:00:53;;;;;;;4.63;1.80;;;;;6.70;101186.00;;;;10525591;28;20491;-77
2023/03/28 23:06:00;;;;;;;2.50;1.53;;;;;6.80;101177.00;;;;10523977;27;20547;-77
2023/03/28 23:11:02;;;;;;;3.77;2.10;;;;;6.80;101171.00;;;;10517785;27;20300;-77
2023/03/28 23:16:06;;;;;;;3.57;1.87;;;;;6.90;101170.00;;;;10506999;28;20730;-77
2023/03/28 23:21:08;;;;;;;2.63;1.60;;;;;6.90;101176.00;;;;10550728;27;20205;-78
2023/03/28 23:26:10;;;;;;;4.43;2.30;;;;;7.00;101162.00;;;;10516494;27;20215;-77
2023/03/28 23:31:12;;;;;;;3.43;1.80;;;;;7.10;101159.00;;;;10509395;27;20207;-78
2023/03/28 23:36:18;;;;;;;3.93;1.60;;;;;7.20;101157.00;;;;10507746;27;20759;-78
2023/03/28 23:41:21;;;;;;;4.37;1.97;;;;;7.20;101142.00;;;;10531681;27;20226;-77
2023/03/28 23:46:23;;;;;;;3.47;1.97;;;;;7.20;101149.00;;;;10520138;27;20249;-77
2023/03/28 23:51:25;;;;;;;4.27;2.10;;;;;7.20;101133.00;;;;10535788;27;20203;-77
2023/03/28 23:56:27;;;;;;;2.97;1.73;;;;;7.20;101135.00;;;;10508622;28;20269;-77
